Time;durP1;ratioP1;P1;durP2;ratioP2;P2;SDS_P1;SDS_P2;PMS_P1;PMS_P2;Temp;Humidity;BMP_temperature;BMP_pressure;BME280_temperature;BME280_humidity;BME280_pressure;Samples;Min_cycle;Max_cycle;Signal;HPM_P1;HPM_P2
2023/08/10 00:00:12;;;;;;;0.13;0.13;;;;;;;17.93;59.79;102197.03;4989927;28;20022;-85
2023/08/10 00:02:39;;;;;;;0.10;0.10;;;;;;;17.94;59.21;102196.13;4994724;28;20050;-85
2023/08/10 00:05:06;;;;;;;0.57;0.57;;;;;;;17.94;59.62;102187.19;4991953;28;20085;-85
2023/08/10 00:07:33;;;;;;;0.00;0.00;;;;;;;17.94;59.76;102195.25;5001663;28;20046;-85
2023/08/10 00:09:59;;;;;;;0.10;0.10;;;;;;;17.92;59.50;102199.75;4992990;28;20022;-85
2023/08/10 00:12:25;;;;;;;0.10;0.10;;;;;;;17.88;60.05;102195.38;4988598;28;20511;-86
2023/08/10 00:14:51;;;;;;;0.08;0.08;;;;;;;17.82;60.77;102191.09;4991575;28;20352;-85
2023/08/10 00:17:18;;;;;;;0.10;0.10;;;;;;;17.79;60.31;102192.06;4988922;28;20484;-86
2023/08/10 00:19:44;;;;;;;0.10;0.10;;;;;;;17.78;59.87;102198.34;4997938;28;20077;-85
2023/08/10 00:22:10;;;;;;;0.10;0.10;;;;;;;17.77;60.21;102198.41;4984241;28;20519;-85
2023/08/10 00:24:37;;;;;;;0.00;0.00;;;;;;;17.75;60.25;102198.41;4982466;28;20113;-86
2023/08/10 00:27:05;;;;;;;0.10;0.10;;;;;;;17.73;60.89;102185.97;4991157;28;20399;-86
2023/08/10 00:29:31;;;;;;;0.45;0.45;;;;;;;17.70;60.44;102195.00;5002490;28;20446;-86
2023/08/10 00:31:57;;;;;;;0.00;0.00;;;;;;;17.67;60.49;102189.75;4999447;28;20092;-85
2023/08/10 00:34:23;;;;;;;0.08;0.08;;;;;;;17.63;60.66;102194.31;5000668;28;20034;-85
2023/08/10 00:36:49;;;;;;;0.10;0.10;;;;;;;17.59;61.06;102191.75;4993889;28;20031;-86
2023/08/10 00:39:17;;;;;;;0.10;0.10;;;;;;;17.57;60.76;102190.91;5000752;28;20082;-85
2023/08/10 00:41:43;;;;;;;0.10;0.10;;;;;;;17.55;60.61;102192.75;5000861;28;20026;-84
2023/08/10 00:44:10;;;;;;;0.00;0.00;;;;;;;17.52;61.07;102192.81;4999512;28;20032;-86
2023/08/10 00:46:37;;;;;;;0.10;0.10;;;;;;;17.50;61.31;102194.69;4998708;28;20039;-86
2023/08/10 00:49:04;;;;;;;0.00;0.00;;;;;;;17.46;61.33;102197.44;4997425;28;20027;-85
2023/08/10 00:51:30;;;;;;;0.08;0.08;;;;;;;17.42;61.30;102190.41;4997029;28;20042;-86
2023/08/10 00:53:57;;;;;;;0.10;0.10;;;;;;;17.41;61.13;102188.66;4992873;28;20034;-85
2023/08/10 00:56:23;;;;;;;0.10;0.10;;;;;;;17.39;61.72;102203.88;5000944;28;20526;-86
2023/08/10 00:58:51;;;;;;;0.00;0.00;;;;;;;17.38;61.64;102206.59;4996357;28;20061;-85
2023/08/10 01:01:17;;;;;;;0.10;0.10;;;;;;;17.38;61.37;102207.47;4989590;28;20027;-85
2023/08/10 01:03:43;;;;;;;0.10;0.10;;;;;;;17.37;61.75;102205.75;4990297;28;20109;-86
2023/08/10 01:06:36;;;;;;;0.10;0.10;;;;;;;17.43;61.69;102204.69;4996818;28;20030;-85
2023/08/10 01:11:50;;;;;;;0.10;0.10;;;;;;;17.34;61.69;102205.81;4821574;27;10170557;-82
2023/08/10 01:17:45;;;;;;;0.10;0.10;;;;;;;17.34;62.08;102197.78;5073145;28;20422;-82
2023/08/10 01:20:51;;;;;;;0.00;0.00;;;;;;;17.26;62.12;102202.47;5075589;28;20036;-82
2023/08/10 01:24:11;;;;;;;0.05;0.05;;;;;;;17.25;62.48;102198.03;5063436;28;20037;-82
2023/08/10 01:27:25;;;;;;;0.10;0.10;;;;;;;17.23;62.07;102202.53;5057513;28;20053;-82
2023/08/10 01:30:39;;;;;;;0.20;0.20;;;;;;;17.21;62.45;102199.91;5015327;28;20043;-82
2023/08/10 01:34:39;;;;;;;0.05;0.05;;;;;;;17.22;62.84;102203.44;4982214;28;20038;-83
2023/08/10 01:37:55;;;;;;;;;;;;;;;;;;;;;
2023/08/10 01:41:29;;;;;;;0.05;0.05;;;;;;;17.12;62.74;102195.66;4991977;28;20035;-82
2023/08/10 01:48:03;;;;;;;0.10;0.10;;;;;;;17.09;63.19;102189.50;5055615;28;20587;-82
2023/08/10 01:55:12;;;;;;;;;;;;;;;;;;;;;
2023/08/10 02:01:38;;;;;;;;;;;;;;;;;;;;;
2023/08/10 02:05:36;;;;;;;0.10;0.10;;;;;;;16.90;63.41;102183.72;4981063;28;20069;-82
2023/08/10 02:08:22;;;;;;;0.10;0.10;;;;;;;16.83;63.27;102182.97;4947813;28;20038;-83
2023/08/10 02:12:29;;;;;;;;;;;;;;;;;;;;;
2023/08/10 02:18:44;;;;;;;0.10;0.10;;;;;;;16.82;63.40;102186.56;4958573;28;20094;-82
2023/08/10 02:23:13;;;;;;;0.00;0.00;;;;;;;16.82;64.10;102186.56;4964748;28;20047;-82
2023/08/10 02:29:45;;;;;;;0.10;0.10;;;;;;;16.76;63.88;102189.38;4906283;29;20036;-82
2023/08/10 02:36:09;;;;;;;0.10;0.10;;;;;;;16.70;64.55;102198.47;4816733;29;20039;-83
2023/08/10 02:43:38;;;;;;;;;;;;;;;;;;;;;
2023/08/10 02:50:30;;;;;;;0.10;0.10;;;;;;;16.60;65.01;102218.34;4821739;29;20035;-82
2023/08/10 02:57:48;;;;;;;0.10;0.10;;;;;;;16.53;64.66;102217.59;4833441;29;20577;-83
2023/08/10 03:01:15;;;;;;;0.10;0.10;;;;;;;16.50;64.58;102220.34;4798181;29;20058;-82
2023/08/10 03:04:38;;;;;;;0.10;0.10;;;;;;;16.46;64.63;102215.97;4808016;29;20060;-83
2023/08/10 03:07:38;;;;;;;0.10;0.10;;;;;;;16.45;64.77;102217.75;4862738;28;20061;-82
2023/08/10 03:10:54;;;;;;;0.10;0.10;;;;;;;16.54;64.54;102218.47;4952923;28;20135;-82
2023/08/10 03:16:38;;;;;;;0.10;0.10;;;;;;;16.55;64.95;102217.53;4881562;29;20420;-83
2023/08/10 03:20:12;;;;;;;0.05;0.05;;;;;;;16.62;64.88;102220.06;4928655;29;20051;-83
2023/08/10 03:27:15;;;;;;;0.10;0.10;;;;;;;16.84;64.90;102216.88;4844314;29;20502;-83
2023/08/10 03:30:16;;;;;;;0.08;0.08;;;;;;;16.85;65.22;102212.38;4808897;29;20043;-82
2023/08/10 03:33:46;;;;;;;;;;;;;;;;;;;;;
2023/08/10 03:37:26;;;;;;;0.10;0.10;;;;;;;17.02;65.23;102215.53;4788871;29;20054;-83
2023/08/10 03:43:40;;;;;;;0.05;0.05;;;;;;;17.16;65.58;102207.19;4701991;30;20529;-83
2023/08/10 03:50:37;;;;;;;0.10;0.10;;;;;;;17.23;65.73;102202.53;4731031;30;20170;-83
2023/08/10 03:53:55;;;;;;;0.10;0.10;;;;;;;17.28;65.77;102204.19;4730709;30;20060;-82
2023/08/10 03:57:03;;;;;;;0.10;0.10;;;;;;;17.31;65.42;102205.91;4737220;30;20086;-82
2023/08/10 04:00:44;;;;;;;0.00;0.00;;;;;;;17.29;66.00;102207.72;4761375;30;20044;-82
2023/08/10 04:03:10;;;;;;;0.00;0.00;;;;;;;17.27;65.49;102210.47;4763209;30;20040;-82
2023/08/10 04:10:19;;;;;;;0.05;0.05;;;;;;;17.29;65.33;102213.97;4718571;30;20041;-82
2023/08/10 04:13:59;;;;;;;;;;;;;;;;;;;;;
2023/08/10 04:23:41;;;;;;;0.00;0.00;;;;;;;17.41;65.57;102217.25;4725955;30;20041;-82
2023/08/10 04:30:29;;;;;;;0.80;0.63;;;;;;;17.54;65.76;102217.78;4810490;29;20053;-82
2023/08/10 04:37:15;;;;;;;0.10;0.10;;;;;;;17.63;65.75;102214.84;4858737;29;20093;-82
2023/08/10 04:40:13;;;;;;;0.10;0.10;;;;;;;17.68;65.62;102217.41;4821870;29;20404;-82
2023/08/10 04:47:35;;;;;;;0.00;0.00;;;;;;;17.75;65.54;102216.31;4772291;30;20051;-82
2023/08/10 04:50:47;;;;;;;0.10;0.10;;;;;;;17.82;65.80;102211.66;4838275;29;20042;-82
2023/08/10 04:55:58;;;;;;;0.03;0.03;;;;;;;17.83;65.46;102217.00;4834684;29;20046;-82
2023/08/10 04:59:39;;;;;;;0.10;0.10;;;;;;;17.83;65.54;102225.03;4733245;30;20052;-82
2023/08/10 05:01:42;;;;;;;;;;;;;;;;;;;;;
2023/08/10 05:09:55;;;;;;;0.10;0.10;;;;;;;17.89;65.47;102213.22;4739630;30;20083;-82
2023/08/10 05:11:48;;;;;;;0.10;0.10;;;;;;;17.90;65.52;102220.38;4743242;30;20079;-82
2023/08/10 05:15:14;;;;;;;;;;;;;;;;;;;;;
2023/08/10 05:18:45;;;;;;;0.10;0.10;;;;;;;17.96;65.63;102209.50;4741181;30;20052;-82
2023/08/10 05:21:36;;;;;;;0.05;0.05;;;;;;;17.98;65.65;102218.38;4825160;29;20136;-82
2023/08/10 05:24:50;;;;;;;;;;;;;;;;;;;;;
2023/08/10 05:28:27;;;;;;;0.57;0.57;;;;;;;18.04;65.98;102204.75;4802413;29;20084;-82
2023/08/10 05:41:23;;;;;;;0.08;0.08;;;;;;;18.20;66.43;102209.69;4947354;28;20043;-82
2023/08/10 05:44:24;;;;;;;0.10;0.10;;;;;;;18.22;66.61;102205.16;4925287;29;20415;-82
2023/08/10 05:54:20;;;;;;;0.10;0.10;;;;;;;18.53;66.04;102199.72;4952466;28;20077;-82
2023/08/10 05:57:30;;;;;;;0.00;0.00;;;;;;;18.54;65.90;102203.25;4917331;29;20136;-82
2023/08/10 06:00:52;;;;;;;;;;;;;;;;;;;;;
2023/08/10 06:04:02;;;;;;;0.10;0.10;;;;;;;18.66;65.42;102200.19;4955807;28;20050;-83
2023/08/10 06:07:12;;;;;;;0.10;0.10;;;;;;;18.68;65.29;102195.66;4990069;28;20131;-82
2023/08/10 06:09:35;;;;;;;0.10;0.10;;;;;;;18.75;65.13;102189.16;4979788;28;20051;-80
2023/08/10 06:12:01;;;;;;;0.10;0.10;;;;;;;18.79;64.92;102187.25;4992387;28;20042;-82
2023/08/10 06:14:28;;;;;;;0.10;0.10;;;;;;;18.84;65.06;102192.44;4997927;28;20473;-82
2023/08/10 06:16:54;;;;;;;0.10;0.10;;;;;;;18.90;64.78;102192.25;4990293;28;20129;-82
2023/08/10 06:19:21;;;;;;;0.10;0.10;;;;;;;18.91;64.75;102188.66;4996523;28;20051;-82
2023/08/10 06:21:50;;;;;;;0.10;0.10;;;;;;;18.97;64.33;102198.34;4994382;28;20038;-82
2023/08/10 06:24:17;;;;;;;0.00;0.00;;;;;;;18.98;64.36;102195.59;4988227;28;20412;-82
2023/08/10 06:26:43;;;;;;;0.10;0.10;;;;;;;19.03;64.48;102200.81;4994463;28;20038;-82
2023/08/10 06:29:10;;;;;;;0.10;0.10;;;;;;;19.11;64.28;102201.41;4995117;28;20045;-82
2023/08/10 06:31:36;;;;;;;0.00;0.00;;;;;;;19.17;64.72;102205.72;4997504;28;20042;-82
2023/08/10 06:34:02;;;;;;;0.00;0.00;;;;;;;19.22;64.56;102193.84;5035808;28;20029;-83
2023/08/10 06:36:29;;;;;;;0.03;0.03;;;;;;;19.28;64.39;102198.16;5036320;28;20405;-82
2023/08/10 06:39:27;;;;;;;0.00;0.00;;;;;;;19.45;64.12;102193.97;5034337;28;20029;-83
2023/08/10 06:43:32;;;;;;;0.10;0.10;;;;;;;19.54;63.95;102193.66;5033167;28;20040;-82
2023/08/10 06:45:13;;;;;;;0.10;0.10;;;;;;;19.54;63.71;102204.41;5022348;28;20038;-82
2023/08/10 06:47:43;;;;;;;0.90;0.90;;;;;;;19.61;63.51;102203.25;5035248;28;20037;-82
2023/08/10 06:50:17;;;;;;;0.47;0.47;;;;;;;19.68;63.27;102202.09;5035021;28;20076;-82
2023/08/10 06:52:53;;;;;;;0.17;0.17;;;;;;;19.74;63.28;102201.00;5035253;28;20040;-82
2023/08/10 06:55:38;;;;;;;0.25;0.25;;;;;;;19.84;63.03;102201.56;5032669;28;20113;-82
2023/08/10 06:58:28;;;;;;;0.30;0.30;;;;;;;19.87;62.42;102205.00;5047903;28;20037;-82
2023/08/10 07:01:16;;;;;;;0.10;0.10;;;;;;;19.88;62.01;102203.19;5044682;28;20033;-84
2023/08/10 07:03:57;;;;;;;0.30;0.30;;;;;;;20.07;62.18;102202.50;5039702;28;20033;-83
2023/08/10 07:06:23;;;;;;;0.75;0.50;;;;;;;20.02;61.26;102192.78;5042113;28;20509;-81
2023/08/10 07:08:54;;;;;;;0.10;0.10;;;;;;;20.16;61.76;102191.38;5032625;28;20037;-83
2023/08/10 07:11:43;;;;;;;0.40;0.40;;;;;;;20.32;61.83;102192.50;5039463;28;20064;-83
2023/08/10 07:14:21;;;;;;;0.22;0.22;;;;;;;20.43;61.54;102199.31;5032714;28;20082;-82
2023/08/10 07:16:55;;;;;;;0.10;0.10;;;;;;;20.48;61.41;102192.78;5039171;28;20068;-81
2023/08/10 07:19:26;;;;;;;0.10;0.10;;;;;;;20.58;61.10;102197.81;5039604;28;20087;-83
2023/08/10 07:21:56;;;;;;;0.10;0.10;;;;;;;20.63;61.19;102207.44;5038464;28;20044;-83
2023/08/10 07:24:36;;;;;;;0.20;0.20;;;;;;;20.74;60.93;102201.66;5035946;28;20034;-83
2023/08/10 07:27:18;;;;;;;0.43;0.43;;;;;;;20.89;60.61;102202.81;5038515;28;20048;-83
2023/08/10 07:29:44;;;;;;;0.97;0.90;;;;;;;20.84;58.01;102196.75;5034123;28;20041;-83
2023/08/10 07:32:15;;;;;;;0.40;0.40;;;;;;;20.92;57.55;102202.72;5037829;28;20497;-83
2023/08/10 07:34:58;;;;;;;0.10;0.10;;;;;;;21.07;57.80;102200.28;5027481;28;20029;-84
2023/08/10 07:37:56;;;;;;;0.20;0.20;;;;;;;21.14;57.25;102201.78;5026169;28;20064;-83
2023/08/10 07:40:25;;;;;;;0.00;0.00;;;;;;;21.19;57.15;102207.00;5033090;28;20496;-82
2023/08/10 07:43:17;;;;;;;0.00;0.00;;;;;;;21.32;57.64;102209.09;5038249;28;20029;-82
2023/08/10 07:45:43;;;;;;;0.35;0.35;;;;;;;21.47;57.58;102209.34;5035657;28;20038;-83
2023/08/10 07:48:15;;;;;;;0.28;0.28;;;;;;;21.58;56.95;102207.09;5038479;28;20034;-82
2023/08/10 07:51:03;;;;;;;0.10;0.10;;;;;;;21.60;55.69;102215.97;5035275;28;20032;-83
2023/08/10 07:53:36;;;;;;;0.10;0.10;;;;;;;21.75;55.58;102211.69;5035882;28;20033;-83
2023/08/10 07:56:11;;;;;;;0.10;0.10;;;;;;;21.86;55.96;102213.91;5038448;28;20083;-83
2023/08/10 07:58:37;;;;;;;0.38;0.38;;;;;;;21.78;54.15;102214.28;5037787;28;20113;-83
2023/08/10 08:01:07;;;;;;;0.55;0.55;;;;;;;21.95;55.09;102218.88;5037893;28;20518;-83
2023/08/10 08:03:36;;;;;;;0.00;0.00;;;;;;;22.06;55.96;102217.53;5036707;28;20056;-84
2023/08/10 08:06:02;;;;;;;0.10;0.10;;;;;;;22.11;55.32;102215.47;5038043;28;20083;-84
2023/08/10 08:08:29;;;;;;;0.10;0.10;;;;;;;22.21;55.73;102211.38;5033865;28;20037;-84
2023/08/10 08:10:55;;;;;;;0.73;0.45;;;;;;;22.28;54.72;102210.16;5035310;28;20032;-83
2023/08/10 08:13:21;;;;;;;0.28;0.28;;;;;;;22.25;52.33;102222.91;5037326;28;20089;-84
2023/08/10 08:15:50;;;;;;;0.28;0.28;;;;;;;22.14;50.30;102220.72;5037706;28;20043;-84
2023/08/10 08:18:47;;;;;;;4.82;1.48;;;;;;;22.25;51.17;102218.38;5037783;28;20105;-85
2023/08/10 08:21:22;;;;;;;0.08;0.08;;;;;;;22.28;53.48;102222.75;5029801;28;20040;-84
2023/08/10 08:23:50;;;;;;;0.10;0.10;;;;;;;22.23;51.98;102225.69;5035406;28;20029;-84
2023/08/10 08:26:26;;;;;;;0.10;0.10;;;;;;;22.22;50.95;102226.66;5037775;28;20045;-84
2023/08/10 08:28:55;;;;;;;1.27;0.60;;;;;;;22.18;51.49;102230.44;5036527;28;20489;-83
2023/08/10 08:31:21;;;;;;;0.10;0.10;;;;;;;22.15;50.77;102227.88;5036080;28;20084;-83
2023/08/10 08:33:48;;;;;;;0.10;0.10;;;;;;;22.17;51.43;102231.38;5034404;28;20699;-84
2023/08/10 08:36:14;;;;;;;0.13;0.13;;;;;;;22.25;51.94;102228.31;5036897;28;20025;-84
2023/08/10 08:38:40;;;;;;;0.10;0.10;;;;;;;22.32;50.81;102226.19;5032734;28;20068;-83
2023/08/10 08:41:08;;;;;;;5.47;0.60;;;;;;;22.41;51.17;102223.97;5037844;28;20079;-84
2023/08/10 08:43:35;;;;;;;0.17;0.17;;;;;;;22.30;49.02;102232.53;5037325;28;20051;-84
2023/08/10 08:46:03;;;;;;;0.10;0.10;;;;;;;22.41;49.73;102220.41;5035748;28;20480;-84
2023/08/10 08:48:29;;;;;;;0.15;0.15;;;;;;;22.45;49.63;102224.69;5033868;28;20061;-84
2023/08/10 08:50:56;;;;;;;1.27;1.20;;;;;;;22.51;50.13;102229.81;5038756;28;20053;-84
2023/08/10 08:53:24;;;;;;;0.30;0.30;;;;;;;22.43;48.05;102226.59;5034491;28;20048;-84
2023/08/10 08:55:50;;;;;;;0.85;0.75;;;;;;;22.44;47.44;102222.94;5036749;28;20037;-84
2023/08/10 08:58:17;;;;;;;0.10;0.10;;;;;;;22.41;47.69;102223.09;5030684;28;20069;-84
2023/08/10 09:00:48;;;;;;;0.10;0.10;;;;;;;22.54;48.50;102218.88;5041830;28;20056;-83
2023/08/10 09:03:17;;;;;;;0.10;0.10;;;;;;;22.64;49.04;102221.09;5056599;28;20037;-83
2023/08/10 09:05:45;;;;;;;0.13;0.13;;;;;;;22.70;47.65;102218.94;5047090;28;20302;-84
2023/08/10 09:08:14;;;;;;;0.17;0.17;;;;;;;22.72;47.53;102218.91;5030358;28;20030;-84
2023/08/10 09:10:41;;;;;;;0.17;0.17;;;;;;;22.79;47.56;102217.63;5029426;28;20519;-84
2023/08/10 09:13:15;;;;;;;0.30;0.30;;;;;;;22.81;46.28;102215.72;5037057;28;20112;-83
2023/08/10 09:15:42;;;;;;;0.10;0.10;;;;;;;22.89;47.62;102212.63;5036939;28;20033;-84
2023/08/10 09:18:08;;;;;;;0.22;0.22;;;;;;;22.92;46.23;102210.66;5029512;28;20032;-83
2023/08/10 09:20:35;;;;;;;0.35;0.35;;;;;;;23.01;46.31;102216.56;5036029;28;20026;-83
2023/08/10 09:23:01;;;;;;;0.45;0.45;;;;;;;23.04;45.47;102221.78;5030696;28;20033;-83
2023/08/10 09:25:37;;;;;;;0.10;0.10;;;;;;;23.16;46.09;102220.34;5036815;28;20025;-84
2023/08/10 09:28:08;;;;;;;0.30;0.30;;;;;;;23.19;46.45;102220.16;5036662;28;20040;-82
2023/08/10 09:30:34;;;;;;;0.30;0.30;;;;;;;23.24;47.17;102218.09;5035174;28;20031;-83
2023/08/10 09:33:03;;;;;;;0.00;0.00;;;;;;;23.39;47.80;102219.13;5036242;28;20048;-82
2023/08/10 09:35:31;;;;;;;0.13;0.13;;;;;;;23.54;47.05;102214.72;5036563;28;20166;-83
2023/08/10 09:38:02;;;;;;;0.10;0.10;;;;;;;23.69;47.51;102213.03;5034709;28;20033;-83
2023/08/10 09:40:28;;;;;;;0.38;0.38;;;;;;;23.78;46.24;102209.84;5040544;28;20018;-83
2023/08/10 09:42:54;;;;;;;0.10;0.10;;;;;;;23.90;46.50;102222.72;5040515;28;20040;-83
2023/08/10 09:45:20;;;;;;;0.15;0.15;;;;;;;23.98;46.27;102218.75;5037261;28;20053;-83
2023/08/10 09:47:46;;;;;;;0.10;0.10;;;;;;;24.03;45.67;102227.47;5040237;28;20034;-83
2023/08/10 09:50:15;;;;;;;0.15;0.15;;;;;;;24.09;46.14;102227.16;5041511;28;20420;-84
2023/08/10 09:52:43;;;;;;;0.35;0.35;;;;;;;24.08;44.50;102222.69;5038726;28;20026;-83
2023/08/10 09:55:10;;;;;;;0.10;0.10;;;;;;;24.03;44.22;102216.66;5033034;28;20025;-83
2023/08/10 09:57:40;;;;;;;0.10;0.10;;;;;;;23.98;44.55;102230.44;5042041;28;20057;-84
2023/08/10 10:00:14;;;;;;;0.22;0.22;;;;;;;23.95;45.08;102224.31;5038596;28;20384;-84
2023/08/10 10:02:40;;;;;;;0.57;0.57;;;;;;;23.96;45.05;102226.06;5037643;28;20029;-84
2023/08/10 10:05:07;;;;;;;0.00;0.00;;;;;;;23.98;44.52;102224.16;5040355;28;20473;-84
2023/08/10 10:07:34;;;;;;;0.20;0.20;;;;;;;24.00;44.73;102224.94;5039695;28;20021;-84
2023/08/10 10:10:01;;;;;;;0.00;0.00;;;;;;;24.05;46.36;102225.53;5031795;28;20112;-83
2023/08/10 10:12:29;;;;;;;0.00;0.00;;;;;;;24.15;47.32;102229.50;5039857;28;20040;-83
2023/08/10 10:14:56;;;;;;;0.10;0.10;;;;;;;24.18;44.61;102226.63;5040017;28;20017;-83
2023/08/10 10:17:22;;;;;;;0.10;0.10;;;;;;;24.26;44.36;102220.78;5040175;28;20049;-83
2023/08/10 10:19:51;;;;;;;0.15;0.15;;;;;;;24.32;44.52;102211.44;5039021;28;20036;-83
2023/08/10 10:22:19;;;;;;;0.20;0.20;;;;;;;24.36;45.31;102211.19;5035243;28;20033;-83
2023/08/10 10:24:46;;;;;;;0.10;0.10;;;;;;;24.50;46.38;102210.38;5028745;28;20378;-84
2023/08/10 10:27:13;;;;;;;0.10;0.10;;;;;;;24.61;45.07;102208.88;5040139;28;20110;-84
2023/08/10 10:29:41;;;;;;;0.10;0.10;;;;;;;24.69;44.25;102209.34;5040328;28;20039;-84
2023/08/10 10:34:51;;;;;;;2.75;1.05;;;;;;;24.84;44.45;102213.88;5073693;28;20380;-84
2023/08/10 10:40:18;;;;;;;0.10;0.10;;;;;;;24.96;43.45;102205.97;4404068;27;21713206;-83
2023/08/10 10:43:07;;;;;;;0.10;0.10;;;;;;;25.04;43.13;102209.09;5155281;27;20027;-84
2023/08/10 10:45:38;;;;;;;0.20;0.20;;;;;;;25.03;42.15;102212.78;5135268;27;20023;-83
2023/08/10 10:48:12;;;;;;;0.10;0.10;;;;;;;25.17;42.72;102209.22;5136441;27;20027;-84
2023/08/10 10:50:40;;;;;;;0.10;0.10;;;;;;;25.21;43.54;102213.53;5135960;28;20031;-83
2023/08/10 10:53:13;;;;;;;0.10;0.10;;;;;;;25.30;43.08;102212.94;5134758;27;20046;-83
2023/08/10 10:55:48;;;;;;;0.20;0.20;;;;;;;25.34;42.84;102206.34;5137661;27;20030;-83
2023/08/10 10:58:16;;;;;;;0.10;0.10;;;;;;;25.44;43.86;102206.69;5129447;27;20145;-83
2023/08/10 11:00:48;;;;;;;0.10;0.10;;;;;;;25.47;42.00;102211.06;5138050;27;20024;-83
2023/08/10 11:03:22;;;;;;;0.00;0.00;;;;;;;25.65;42.95;102206.34;5134707;27;20016;-83
2023/08/10 11:05:50;;;;;;;0.00;0.00;;;;;;;25.74;41.66;102200.34;5134020;27;20034;-83
2023/08/10 11:08:28;;;;;;;0.40;0.40;;;;;;;25.98;41.64;102197.91;5134483;28;20038;-83
2023/08/10 11:11:15;;;;;;;0.32;0.32;;;;;;;26.14;43.09;102186.97;5136770;27;20053;-84
2023/08/10 11:13:53;;;;;;;0.00;0.00;;;;;;;26.28;41.98;102196.94;5135600;27;20118;-83
2023/08/10 11:16:43;;;;;;;0.10;0.10;;;;;;;26.38;41.75;102197.19;5126426;27;20019;-83
2023/08/10 11:19:25;;;;;;;0.10;0.10;;;;;;;26.54;42.41;102190.72;5132384;27;20478;-83
2023/08/10 11:22:08;;;;;;;0.00;0.00;;;;;;;26.71;41.38;102189.63;5132244;27;20093;-83
2023/08/10 11:24:45;;;;;;;0.10;0.10;;;;;;;26.85;41.52;102188.69;5146014;27;20047;-83
2023/08/10 11:27:23;;;;;;;0.10;0.10;;;;;;;26.99;41.45;102201.34;5148392;27;20031;-83
2023/08/10 11:30:21;;;;;;;0.00;0.00;;;;;;;27.10;40.70;102205.09;5147072;27;20049;-83
2023/08/10 11:33:22;;;;;;;0.10;0.10;;;;;;;27.28;41.34;102204.78;5149786;27;20066;-83
2023/08/10 11:36:10;;;;;;;;;;;;;;;;;;;;;
2023/08/10 11:38:56;;;;;;;0.10;0.10;;;;;;;27.28;39.88;102197.50;5124070;27;20035;-82
2023/08/10 11:42:08;;;;;;;0.00;0.00;;;;;;;27.31;39.45;102195.53;5153839;27;20027;-82
2023/08/10 11:45:03;;;;;;;;;;;;;;;;;;;;;
2023/08/10 11:48:14;;;;;;;0.00;0.00;;;;;;;27.47;39.34;102189.94;5082411;28;19912;-83
2023/08/10 11:51:01;;;;;;;1.45;0.50;;;;;;;27.58;38.85;102185.44;5041487;28;20050;-83
2023/08/10 11:54:08;;;;;;;0.00;0.00;;;;;;;27.74;40.60;102181.63;5077259;28;20040;-82
2023/08/10 11:56:53;;;;;;;0.10;0.10;;;;;;;27.83;40.36;102180.09;5109021;28;20043;-83
2023/08/10 11:59:53;;;;;;;0.10;0.10;;;;;;;27.91;41.09;102174.94;5091610;28;20028;-81
2023/08/10 12:02:50;;;;;;;0.00;0.00;;;;;;;27.90;40.47;102178.66;5098786;28;20064;-83
2023/08/10 12:05:35;;;;;;;0.10;0.10;;;;;;;27.93;40.67;102190.19;5040989;28;20041;-82
2023/08/10 12:08:18;;;;;;;0.77;0.68;;;;;;;27.99;38.69;102180.72;5031731;28;20049;-83
2023/08/10 12:11:27;;;;;;;0.20;0.20;;;;;;;28.09;37.80;102179.06;5020606;28;20050;-83
2023/08/10 12:14:29;;;;;;;0.00;0.00;;;;;;;28.14;37.85;102162.41;5033824;28;20034;-83
2023/08/10 12:17:14;;;;;;;;;;;;;;;;;;;;;
2023/08/10 12:20:29;;;;;;;0.00;0.00;;;;;;;28.58;39.73;102160.88;4999281;28;20041;-83
2023/08/10 12:24:49;;;;;;;0.10;0.10;;;;;;;28.79;37.89;102153.97;5004818;28;20037;-83
2023/08/10 12:26:42;;;;;;;0.10;0.10;;;;;;;29.09;37.71;102158.88;5000329;28;20034;-83
2023/08/10 12:30:19;;;;;;;0.10;0.10;;;;;;;29.16;37.96;102161.97;5009292;28;20114;-83
2023/08/10 12:33:26;;;;;;;0.10;0.10;;;;;;;29.01;38.75;102156.75;5051245;28;20043;-83
2023/08/10 12:36:28;;;;;;;0.15;0.15;;;;;;;29.01;37.69;102147.69;5094076;28;20038;-83
2023/08/10 12:39:13;;;;;;;0.10;0.10;;;;;;;29.09;38.10;102155.28;5098066;28;21391;-83
2023/08/10 12:42:24;;;;;;;0.43;0.43;;;;;;;29.51;37.06;102152.91;5097013;28;20480;-84
2023/08/10 12:45:10;;;;;;;0.00;0.00;;;;;;;29.77;37.35;102153.53;5090642;28;20582;-83
2023/08/10 12:47:48;;;;;;;0.22;0.22;;;;;;;29.86;36.82;102157.38;5098503;28;20036;-83
2023/08/10 12:51:18;;;;;;;0.10;0.10;;;;;;;30.11;35.12;102149.91;5111459;28;20430;-83
2023/08/10 12:54:11;;;;;;;0.10;0.10;;;;;;;30.23;34.42;102159.78;5085181;28;20050;-83
2023/08/10 12:56:50;;;;;;;0.00;0.00;;;;;;;30.19;34.01;102155.59;5113468;28;20039;-83
2023/08/10 12:59:33;;;;;;;0.10;0.10;;;;;;;30.10;33.57;102161.84;5119422;28;20054;-83
2023/08/10 13:02:28;;;;;;;0.10;0.10;;;;;;;29.92;34.52;102156.91;5117312;28;20045;-83
2023/08/10 13:05:00;;;;;;;0.08;0.08;;;;;;;29.73;36.82;102160.19;5114823;28;20038;-83
2023/08/10 13:08:41;;;;;;;0.10;0.10;;;;;;;29.60;37.24;102156.75;5118976;28;20027;-83
2023/08/10 13:11:05;;;;;;;0.03;0.03;;;;;;;29.47;37.25;102152.28;5108829;28;20028;-83
2023/08/10 13:17:04;;;;;;;0.00;0.00;;;;;;;29.34;37.96;102157.81;5096884;28;20028;-83
2023/08/10 13:20:36;;;;;;;;;;;;;;;29.44;37.41;102157.13;5113451;28;20428;-83
2023/08/10 13:22:52;;;;;;;0.00;0.00;;;;;;;29.43;36.16;102149.91;5105496;28;20262;-83
2023/08/10 13:25:56;;;;;;;0.10;0.10;;;;;;;29.57;37.35;102141.47;5110244;28;20024;-83
2023/08/10 13:28:45;;;;;;;0.15;0.15;;;;;;;29.70;34.84;102147.66;5098159;28;20064;-83
2023/08/10 13:31:41;;;;;;;0.10;0.10;;;;;;;29.63;34.80;102143.69;5118697;28;20016;-83
2023/08/10 13:34:42;;;;;;;0.20;0.20;;;;;;;29.65;36.86;102149.06;5118557;28;20024;-83
2023/08/10 13:37:38;;;;;;;;;;;;;;;;;;;;;
2023/08/10 13:40:57;;;;;;;0.00;0.00;;;;;;;30.04;36.15;102148.69;5085887;28;20032;-83
2023/08/10 13:43:29;;;;;;;0.28;0.20;;;;;;;30.34;35.87;102142.50;5089645;28;20063;-83
2023/08/10 13:46:50;;;;;;;0.10;0.10;;;;;;;30.51;36.10;102141.09;5118206;28;20118;-83
2023/08/10 13:49:55;;;;;;;0.00;0.00;;;;;;;30.62;34.53;102148.41;5077524;28;20046;-83
2023/08/10 13:55:47;;;;;;;0.05;0.05;;;;;;;30.37;35.72;102149.56;5094019;28;20031;-83
2023/08/10 13:58:27;;;;;;;;;;;;;;;30.45;35.30;102141.59;5111288;28;20081;-83
2023/08/10 14:01:22;;;;;;;;;;;;;;;;;;;;;
2023/08/10 14:03:57;;;;;;;0.00;0.00;;;;;;;30.42;35.96;102142.72;5054272;28;20055;-83
2023/08/10 14:06:23;;;;;;;0.00;0.00;;;;;;;30.37;35.79;102138.63;5114683;27;20418;-83
2023/08/10 14:08:52;;;;;;;0.10;0.10;;;;;;;30.25;35.18;102135.94;5117957;28;20031;-83
2023/08/10 14:11:18;;;;;;;0.00;0.00;;;;;;;30.16;35.83;102131.25;5121291;27;20298;-83
2023/08/10 14:13:44;;;;;;;0.10;0.10;;;;;;;30.14;34.99;102133.25;5117768;28;20667;-83
2023/08/10 14:16:10;;;;;;;0.20;0.20;;;;;;;30.22;34.37;102125.28;5123285;27;20054;-83
2023/08/10 14:18:36;;;;;;;0.10;0.10;;;;;;;30.33;36.16;102132.56;5127163;27;20027;-84
2023/08/10 14:21:02;;;;;;;0.10;0.10;;;;;;;30.37;33.34;102127.69;5119738;27;20405;-84
2023/08/10 14:23:28;;;;;;;0.00;0.00;;;;;;;30.44;33.22;102129.78;5118528;28;20058;-84
2023/08/10 14:25:54;;;;;;;0.10;0.10;;;;;;;30.50;33.59;102125.69;5119008;28;20031;-84
2023/08/10 14:28:20;;;;;;;0.00;0.00;;;;;;;30.52;33.58;102115.50;5120237;28;20019;-84
2023/08/10 14:30:46;;;;;;;0.10;0.10;;;;;;;30.60;33.85;102117.56;5119321;28;20402;-83
2023/08/10 14:33:12;;;;;;;0.10;0.10;;;;;;;30.69;33.28;102110.44;5120592;28;20027;-84
2023/08/10 14:35:38;;;;;;;0.52;0.52;;;;;;;30.66;34.52;102106.09;5118624;28;20101;-84
2023/08/10 14:38:04;;;;;;;0.10;0.10;;;;;;;30.43;33.50;102099.84;5120252;28;20035;-84
2023/08/10 14:40:30;;;;;;;0.10;0.10;;;;;;;30.26;35.47;102107.59;5118880;28;20027;-84
2023/08/10 14:42:56;;;;;;;0.03;0.03;;;;;;;30.16;34.05;102110.25;5121080;28;20055;-84
2023/08/10 14:45:22;;;;;;;0.50;0.50;;;;;;;30.17;35.28;102116.59;5119748;28;20482;-84
2023/08/10 14:47:58;;;;;;;0.22;0.22;;;;;;;30.18;37.00;102115.56;5118557;28;20035;-84
2023/08/10 14:50:25;;;;;;;0.00;0.00;;;;;;;30.11;33.99;102117.13;5112181;28;20107;-83
2023/08/10 14:52:51;;;;;;;0.20;0.20;;;;;;;30.14;35.05;102111.38;5119010;28;20026;-84
2023/08/10 14:55:17;;;;;;;0.10;0.10;;;;;;;30.14;34.72;102105.91;5117862;28;20038;-84
2023/08/10 14:57:44;;;;;;;0.28;0.15;;;;;;;30.07;34.05;102118.34;5134990;28;20031;-83